createdAt,value
2018-04-23T00:01:09.845Z,25.63
2018-04-23T00:03:40.114Z,23.00
2018-04-23T00:06:10.470Z,21.07
2018-04-23T00:08:40.749Z,23.40
2018-04-23T00:11:11.148Z,27.00
2018-04-23T00:13:41.189Z,21.97
2018-04-23T00:16:11.814Z,23.00
2018-04-23T00:18:42.304Z,20.07
2018-04-23T00:21:14.665Z,25.80
2018-04-23T00:23:46.192Z,35.10
2018-04-23T00:26:17.049Z,31.07
2018-04-23T00:28:47.521Z,33.03
2018-04-23T00:31:17.773Z,27.27
2018-04-23T00:33:47.800Z,31.07
2018-04-23T00:36:18.876Z,31.30
2018-04-23T00:38:48.900Z,29.20
2018-04-23T00:41:19.305Z,36.27
2018-04-23T00:43:49.611Z,27.80
2018-04-23T00:46:20.758Z,25.90
2018-04-23T00:48:50.897Z,29.70
2018-04-23T00:51:20.939Z,34.13
2018-04-23T00:53:51.528Z,33.10
2018-04-23T00:56:22.597Z,26.80
2018-04-23T00:58:52.849Z,30.20
2018-04-23T01:01:23.172Z,23.27
2018-04-23T01:03:54.043Z,23.60
2018-04-23T01:06:25.423Z,29.83
2018-04-23T01:08:55.473Z,31.33
2018-04-23T01:11:26.540Z,25.00
2018-04-23T01:13:56.801Z,24.40
2018-04-23T01:16:26.751Z,23.33
2018-04-23T01:18:56.911Z,20.70
2018-04-23T01:21:27.454Z,24.13
2018-04-23T01:23:58.326Z,21.30
2018-04-23T01:26:29.087Z,22.00
2018-04-23T01:28:59.692Z,19.90
2018-04-23T01:31:30.369Z,22.00
2018-04-23T01:34:00.429Z,16.27
2018-04-23T01:36:30.778Z,21.20
2018-04-23T01:39:00.776Z,33.03
2018-04-23T01:41:30.825Z,22.17
2018-04-23T01:44:00.824Z,19.77
2018-04-23T01:46:31.398Z,25.20
2018-04-23T01:49:02.013Z,22.53
2018-04-23T01:51:32.497Z,20.23
2018-04-23T01:54:02.456Z,27.50
2018-04-23T01:56:32.797Z,21.00
2018-04-23T01:59:04.594Z,24.47
2018-04-23T02:01:35.003Z,20.63
2018-04-23T02:04:06.188Z,18.13
2018-04-23T02:06:36.367Z,23.10
2018-04-23T02:09:07.220Z,21.47
2018-04-23T02:11:37.315Z,19.77
2018-04-23T02:14:09.409Z,25.77
2018-04-23T02:16:41.370Z,22.07
2018-04-23T02:19:11.672Z,19.50
2018-04-23T02:21:42.616Z,26.97
2018-04-23T02:24:12.979Z,27.50
2018-04-23T02:26:43.742Z,21.02
2018-04-23T02:29:14.056Z,17.00
2018-04-23T02:31:44.796Z,24.17
2018-04-23T02:34:14.773Z,18.27
2018-04-23T02:36:44.781Z,25.50
2018-04-23T02:39:15.297Z,17.93
2018-04-23T02:41:46.569Z,20.90
2018-04-23T02:44:16.581Z,16.57
2018-04-23T02:46:46.762Z,22.70
2018-04-23T02:49:18.553Z,18.37
2018-04-23T02:51:49.453Z,24.65
2018-04-23T02:54:20.641Z,14.48
2018-04-23T02:56:51.537Z,14.98
2018-04-23T02:59:22.426Z,24.50
2018-04-23T03:01:53.062Z,19.53
2018-04-23T03:04:24.252Z,15.53
2018-04-23T03:06:54.568Z,24.92
2018-04-23T03:09:25.968Z,21.30
2018-04-23T03:11:56.628Z,22.80
2018-04-23T03:14:27.421Z,24.42
2018-04-23T03:16:57.844Z,23.73
2018-04-23T03:19:28.235Z,17.08
2018-04-23T03:21:59.827Z,23.87
2018-04-23T03:24:30.632Z,23.10
2018-04-23T03:27:02.619Z,21.70
2018-04-23T03:29:33.869Z,21.50
2018-04-23T03:32:04.081Z,21.70
2018-04-23T03:34:34.612Z,18.87
2018-04-23T03:37:05.034Z,14.50
2018-04-23T03:39:35.889Z,18.50
2018-04-23T03:42:06.448Z,15.20
2018-04-23T03:44:37.231Z,12.23
2018-04-23T03:47:08.272Z,16.50
2018-04-23T03:49:39.412Z,20.60
2018-04-23T03:52:10.542Z,18.83
2018-04-23T03:54:41.616Z,15.95
2018-04-23T03:57:12.149Z,18.67
2018-04-23T03:59:42.516Z,14.05
2018-04-23T04:02:12.889Z,14.93
2018-04-23T04:04:53.882Z,12.37
2018-04-23T04:07:24.512Z,22.60
2018-04-23T04:09:54.860Z,18.20
2018-04-23T04:12:35.094Z,12.15
2018-04-23T04:15:15.262Z,15.48
2018-04-23T04:18:02.529Z,17.27
2018-04-23T04:20:32.628Z,12.63
2018-04-23T04:23:03.687Z,21.08
2018-04-23T04:25:33.751Z,12.35
2018-04-23T04:28:05.153Z,18.30
2018-04-23T04:30:35.815Z,15.00
2018-04-23T04:33:08.668Z,14.20
2018-04-23T04:35:38.150Z,20.55
2018-04-23T04:38:06.944Z,24.83
2018-04-23T04:40:36.918Z,17.90
2018-04-23T04:43:05.814Z,16.77
2018-04-23T04:45:35.558Z,20.83
2018-04-23T04:48:07.555Z,17.80
2018-04-23T04:50:38.106Z,21.92
2018-04-23T04:53:08.906Z,15.10
2018-04-23T04:55:39.108Z,12.93
2018-04-23T04:58:11.360Z,18.27
2018-04-23T05:00:41.470Z,17.77
2018-04-23T05:03:10.758Z,19.10
2018-04-23T05:05:40.489Z,21.02
2018-04-23T05:08:10.797Z,14.45
2018-04-23T05:10:39.706Z,24.12
2018-04-23T05:13:16.676Z,18.87
2018-04-23T05:15:54.675Z,21.77
2018-04-23T05:18:23.772Z,21.50
2018-04-23T05:21:00.712Z,15.00
2018-04-23T05:23:39.878Z,16.17
2018-04-23T05:26:17.442Z,15.80
2018-04-23T05:28:56.086Z,15.70
2018-04-23T05:31:25.585Z,19.02
2018-04-23T05:33:55.235Z,17.00
2018-04-23T05:36:33.295Z,11.82
2018-04-23T05:39:04.306Z,15.77
2018-04-23T05:41:34.615Z,16.33
2018-04-23T05:44:06.611Z,17.17
2018-04-23T05:46:36.814Z,23.48
2018-04-23T05:49:13.008Z,17.42
2018-04-23T05:51:49.728Z,18.05
2018-04-23T05:54:27.658Z,11.50
2018-04-23T05:56:58.279Z,13.38
2018-04-23T05:59:27.982Z,10.30
2018-04-23T06:01:57.727Z,18.15
2018-04-23T06:04:30.413Z,10.00
2018-04-23T06:07:03.233Z,9.47
2018-04-23T06:09:33.172Z,9.73
2018-04-23T06:12:03.723Z,12.85
2018-04-23T06:14:34.947Z,12.95
2018-04-23T06:17:05.795Z,13.43
2018-04-23T06:19:39.850Z,14.23
2018-04-23T06:22:09.907Z,15.20
2018-04-23T06:24:40.300Z,10.27
2018-04-23T06:27:10.123Z,15.57
2018-04-23T06:29:42.734Z,9.60
2018-04-23T06:32:13.296Z,10.40
2018-04-23T06:34:43.906Z,17.27
2018-04-23T06:37:13.742Z,16.67
2018-04-23T06:39:44.768Z,10.60
2018-04-23T06:42:14.406Z,15.00
2018-04-23T06:44:43.620Z,10.30
2018-04-23T06:47:12.187Z,14.13
2018-04-23T06:49:49.489Z,11.30
2018-04-23T06:52:28.211Z,19.57
2018-04-23T06:54:58.207Z,13.90
2018-04-23T06:57:28.257Z,13.80
2018-04-23T07:00:06.597Z,9.30
2018-04-23T07:02:37.491Z,11.87
2018-04-23T07:05:09.874Z,14.45
2018-04-23T07:07:39.898Z,16.27
2018-04-23T07:10:08.787Z,11.10
2018-04-23T07:12:47.506Z,18.27
2018-04-23T07:15:27.266Z,13.60
2018-04-23T07:18:05.256Z,13.53
2018-04-23T07:20:46.757Z,18.70
2018-04-23T07:23:16.742Z,11.33
2018-04-23T07:25:46.262Z,12.40
2018-04-23T07:28:16.196Z,12.33
2018-04-23T07:30:46.667Z,14.80
2018-04-23T07:33:15.648Z,8.93
2018-04-23T07:35:45.659Z,16.20
2018-04-23T07:38:14.869Z,8.30
2018-04-23T07:40:55.017Z,18.70
2018-04-23T07:43:24.946Z,10.20
2018-04-23T07:45:55.303Z,10.80
2018-04-23T07:48:26.720Z,9.53
2018-04-23T07:50:56.520Z,10.43
2018-04-23T07:53:26.596Z,10.13
2018-04-23T07:55:56.319Z,10.27
2018-04-23T07:58:26.294Z,13.10
2018-04-23T08:00:56.775Z,7.90
2018-04-23T08:03:27.757Z,10.83
2018-04-23T08:05:57.735Z,6.80
2018-04-23T08:08:29.074Z,10.43
2018-04-23T08:10:59.392Z,9.90
2018-04-23T08:13:29.346Z,9.37
2018-04-23T08:15:58.115Z,8.90
2018-04-23T08:18:28.212Z,8.90
2018-04-23T08:20:57.129Z,7.50
2018-04-23T08:23:35.091Z,6.30
2018-04-23T08:26:15.287Z,8.40
2018-04-23T08:28:52.864Z,11.80
2018-04-23T08:31:24.253Z,6.87
2018-04-23T08:33:56.000Z,8.70
2018-04-23T08:36:37.685Z,6.23
2018-04-23T08:39:07.868Z,6.77
2018-04-23T08:41:38.571Z,7.60
2018-04-23T08:44:09.684Z,9.77
2018-04-23T08:46:40.019Z,9.93
2018-04-23T08:49:10.565Z,8.30
2018-04-23T08:51:40.472Z,9.53
2018-04-23T08:54:09.635Z,8.57
2018-04-23T08:56:46.052Z,8.40
2018-04-23T08:59:28.093Z,9.60
2018-04-23T09:02:05.440Z,8.07
2018-04-23T09:04:35.272Z,7.83
2018-04-23T09:07:05.123Z,8.40
2018-04-23T09:09:34.580Z,6.57
2018-04-23T09:12:03.667Z,8.90
2018-04-23T09:14:43.723Z,8.47
2018-04-23T09:17:22.535Z,9.10
2018-04-23T09:20:03.817Z,7.03
2018-04-23T09:22:33.239Z,6.73
2018-04-23T09:25:10.603Z,4.70
2018-04-23T09:27:47.493Z,7.83
2018-04-23T09:30:23.358Z,6.70
2018-04-23T09:32:58.931Z,6.90
2018-04-23T09:35:29.773Z,11.30
2018-04-23T09:38:01.403Z,10.67
2018-04-23T09:43:30.389Z,7.17
2018-04-23T09:45:59.224Z,7.10
2018-04-23T09:48:37.403Z,6.40
2018-04-23T09:51:06.398Z,8.47
2018-04-23T09:53:38.802Z,9.80
2018-04-23T09:56:10.809Z,6.90
2018-04-23T09:58:52.279Z,6.77
2018-04-23T10:01:23.580Z,6.00
2018-04-23T10:03:54.752Z,7.83
2018-04-23T10:06:29.457Z,6.80
2018-04-23T10:09:01.029Z,4.63
2018-04-23T10:11:31.892Z,7.43
2018-04-23T10:14:04.598Z,10.10
2018-04-23T10:16:35.513Z,6.40
2018-04-23T10:19:06.627Z,5.73
2018-04-23T10:21:37.858Z,6.67
2018-04-23T10:24:09.161Z,11.10
2018-04-23T10:26:48.384Z,10.73
2018-04-23T10:29:20.291Z,6.97
2018-04-23T10:31:51.666Z,10.50
2018-04-23T10:34:23.243Z,5.50
2018-04-23T10:36:55.852Z,4.53
2018-04-23T10:39:28.509Z,6.90
2018-04-23T10:42:00.378Z,5.83
2018-04-23T10:44:33.132Z,11.03
2018-04-23T10:47:05.386Z,5.63
2018-04-23T10:49:36.406Z,4.43
2018-04-23T10:52:11.006Z,4.27
2018-04-23T10:54:43.359Z,5.27
2018-04-23T10:57:13.568Z,7.70
2018-04-23T10:59:45.003Z,4.10
2018-04-23T11:02:15.826Z,4.40
2018-04-23T11:04:47.152Z,9.30
2018-04-23T11:07:19.088Z,4.80
2018-04-23T11:09:48.991Z,8.50
2018-04-23T11:12:19.091Z,6.53
2018-04-23T11:14:53.662Z,8.83
2018-04-23T11:17:25.275Z,7.40
2018-04-23T11:20:00.277Z,15.07
2018-04-23T11:22:35.187Z,6.13
2018-04-23T11:25:07.249Z,5.47
2018-04-23T11:27:38.707Z,6.27
2018-04-23T11:30:09.519Z,6.03
2018-04-23T11:32:40.536Z,5.10
2018-04-23T11:35:10.947Z,13.17
2018-04-23T11:37:41.812Z,8.10
2018-04-23T11:40:13.508Z,4.30
2018-04-23T11:42:44.339Z,5.57
2018-04-23T11:45:15.949Z,5.60
2018-04-23T11:47:47.160Z,5.30
2018-04-23T11:50:23.834Z,3.63
2018-04-23T11:52:54.360Z,5.60
2018-04-23T11:55:25.376Z,4.00
2018-04-23T11:57:56.720Z,8.20
2018-04-23T12:00:28.210Z,3.40
2018-04-23T12:03:00.307Z,4.60
2018-04-23T12:05:30.961Z,6.10
2018-04-23T12:08:02.233Z,11.87
2018-04-23T12:10:33.213Z,6.33
2018-04-23T12:13:12.742Z,5.37
2018-04-23T12:15:43.465Z,4.10
2018-04-23T12:18:14.397Z,4.00
2018-04-23T12:20:45.273Z,3.70
2018-04-23T12:23:16.092Z,3.97
2018-04-23T12:25:48.439Z,6.27
2018-04-23T12:28:18.977Z,3.80
2018-04-23T12:30:51.052Z,5.27
2018-04-23T12:33:23.494Z,5.30
2018-04-23T12:35:55.394Z,6.10
2018-04-23T12:38:25.786Z,4.57
2018-04-23T12:40:56.879Z,5.50
2018-04-23T12:43:28.117Z,7.60
2018-04-23T12:45:58.736Z,4.63
2018-04-23T12:48:30.040Z,5.90
2018-04-23T12:53:41.216Z,6.93
2018-04-23T12:56:17.513Z,4.00
2018-04-23T12:58:50.211Z,4.83
2018-04-23T13:01:23.976Z,5.33
2018-04-23T13:03:55.468Z,4.93
2018-04-23T13:06:26.287Z,5.37
2018-04-23T13:08:57.130Z,5.10
2018-04-23T13:11:27.963Z,6.83
2018-04-23T13:13:58.871Z,5.93
2018-04-23T13:16:30.161Z,4.70
2018-04-23T13:21:39.931Z,4.63
2018-04-23T13:24:10.436Z,3.90
2018-04-23T13:26:41.152Z,5.17
2018-04-23T13:29:11.313Z,10.40
2018-04-23T13:31:42.685Z,7.83
2018-04-23T13:34:13.286Z,9.57
2018-04-23T13:36:44.348Z,8.97
2018-04-23T13:39:14.959Z,10.67
2018-04-23T13:41:48.570Z,8.53
2018-04-23T13:44:19.579Z,8.33
2018-04-23T13:46:51.445Z,9.83
2018-04-23T13:49:24.678Z,10.70
2018-04-23T13:51:55.198Z,8.50
2018-04-23T13:54:29.928Z,13.47
2018-04-23T13:57:01.555Z,7.63
2018-04-23T13:59:33.915Z,6.33
2018-04-23T14:02:04.100Z,6.77
2018-04-23T14:04:34.958Z,8.30
2018-04-23T14:07:06.383Z,6.50
2018-04-23T14:09:37.914Z,7.00
2018-04-23T14:12:08.608Z,8.63
2018-04-23T14:14:39.966Z,9.20
2018-04-23T14:17:10.666Z,16.33
2018-04-23T14:19:47.861Z,6.80
2018-04-23T14:22:19.116Z,7.83
2018-04-23T14:24:51.035Z,8.10
2018-04-23T14:27:22.847Z,6.47
2018-04-23T14:30:08.724Z,9.10
2018-04-23T14:32:39.577Z,7.37
2018-04-23T14:35:10.617Z,8.03
2018-04-23T14:37:43.550Z,7.83
2018-04-23T14:40:15.020Z,9.83
2018-04-23T14:42:45.915Z,11.93
2018-04-23T14:45:27.381Z,10.93
2018-04-23T14:47:58.748Z,13.07
2018-04-23T14:50:29.861Z,6.97
2018-04-23T14:52:59.420Z,8.73
2018-04-23T14:55:30.925Z,6.57
2018-04-23T14:58:05.354Z,5.60
2018-04-23T15:00:35.819Z,7.13
2018-04-23T15:03:06.743Z,9.40
2018-04-23T15:08:13.275Z,8.23
2018-04-23T15:10:43.272Z,10.13
2018-04-23T15:13:15.843Z,11.95
2018-04-23T15:15:49.839Z,6.67
2018-04-23T15:18:21.195Z,6.23
2018-04-23T15:20:53.008Z,7.77
2018-04-23T15:23:25.270Z,8.50
2018-04-23T15:25:58.293Z,7.70
2018-04-23T15:28:29.264Z,7.32
2018-04-23T15:31:00.091Z,7.60
2018-04-23T15:33:31.261Z,6.83
2018-04-23T15:36:02.450Z,7.00
2018-04-23T15:38:38.676Z,7.00
2018-04-23T15:41:09.229Z,7.00
2018-04-23T15:43:40.950Z,10.80
2018-04-23T15:46:11.472Z,5.40
2018-04-23T15:48:42.708Z,9.87
2018-04-23T15:51:13.066Z,7.07
2018-04-23T15:53:44.283Z,9.50
2018-04-23T15:56:15.708Z,7.70
2018-04-23T15:58:46.785Z,8.80
2018-04-23T16:01:22.713Z,6.73
2018-04-23T16:03:58.849Z,9.00
2018-04-23T16:06:29.934Z,8.52
2018-04-23T16:09:03.499Z,8.87
2018-04-23T16:11:34.739Z,8.20
2018-04-23T16:14:06.088Z,11.23
2018-04-23T16:16:37.073Z,9.60
2018-04-23T16:19:19.483Z,10.17
2018-04-23T16:21:59.099Z,8.73
2018-04-23T16:24:31.058Z,14.27
2018-04-23T16:27:16.901Z,10.07
2018-04-23T16:29:48.649Z,11.47
2018-04-23T16:32:19.396Z,10.80
2018-04-23T16:34:59.489Z,9.07
2018-04-23T16:37:31.032Z,10.77
2018-04-23T16:40:05.633Z,9.97
2018-04-23T16:42:37.538Z,9.33
2018-04-23T16:45:19.835Z,10.20
2018-04-23T16:47:50.913Z,8.27
2018-04-23T16:50:21.448Z,9.70
2018-04-23T16:52:52.089Z,10.33
2018-04-23T16:55:22.794Z,9.67
2018-04-23T16:57:53.592Z,9.73
2018-04-23T17:00:24.859Z,15.00
2018-04-23T17:02:56.842Z,8.20
2018-04-23T17:05:28.060Z,11.40
2018-04-23T17:07:58.813Z,11.83
2018-04-23T17:10:31.130Z,6.40
2018-04-23T17:13:01.652Z,6.07
2018-04-23T17:15:41.360Z,8.70
2018-04-23T17:18:12.744Z,8.10
2018-04-23T17:20:43.201Z,11.03
2018-04-23T17:23:13.852Z,13.80
2018-04-23T17:25:45.138Z,12.10
2018-04-23T17:28:15.798Z,10.13
2018-04-23T17:30:46.279Z,6.90
2018-04-23T17:33:18.660Z,10.37
2018-04-23T17:35:49.538Z,12.10
2018-04-23T17:38:20.361Z,8.73
2018-04-23T17:40:50.875Z,9.57
2018-04-23T17:43:21.824Z,9.53
2018-04-23T17:45:52.492Z,8.80
2018-04-23T17:51:01.404Z,8.37
2018-04-23T17:53:31.923Z,6.80
2018-04-23T17:56:02.461Z,8.33
2018-04-23T17:58:39.698Z,8.50
2018-04-23T18:01:11.815Z,6.70
2018-04-23T18:03:42.215Z,8.70
2018-04-23T18:06:12.872Z,9.63
2018-04-23T18:08:43.473Z,10.10
2018-04-23T18:11:15.210Z,9.83
2018-04-23T18:13:47.985Z,9.17
2018-04-23T18:16:18.373Z,7.60
2018-04-23T18:18:48.990Z,9.13
2018-04-23T18:21:21.795Z,6.77
2018-04-23T18:23:52.667Z,7.90
2018-04-23T18:26:23.992Z,7.90
2018-04-23T18:28:54.309Z,10.13
2018-04-23T18:31:35.638Z,12.90
2018-04-23T18:34:06.888Z,7.97
2018-04-23T18:36:38.477Z,7.00
2018-04-23T18:39:08.252Z,7.50
2018-04-23T18:41:39.824Z,7.40
2018-04-23T18:44:11.132Z,10.80
2018-04-23T18:46:41.969Z,9.60
2018-04-23T18:49:13.133Z,7.17
2018-04-23T18:51:44.887Z,6.70
2018-04-23T18:54:17.176Z,8.50
2018-04-23T18:56:48.312Z,9.27
2018-04-23T18:59:19.698Z,7.27
2018-04-23T19:01:50.196Z,11.63
2018-04-23T19:04:21.170Z,7.30
2018-04-23T19:06:52.000Z,8.07
2018-04-23T19:09:23.242Z,11.43
2018-04-23T19:11:53.092Z,6.50
2018-04-23T19:14:24.960Z,7.77
2018-04-23T19:16:55.479Z,8.53
2018-04-23T19:19:27.006Z,9.60
2018-04-23T19:22:06.273Z,9.70
2018-04-23T19:24:36.622Z,9.13
2018-04-23T19:27:08.037Z,7.17
2018-04-23T19:29:39.517Z,10.10
2018-04-23T19:32:09.047Z,9.20
2018-04-23T19:34:39.749Z,6.40
2018-04-23T19:37:10.995Z,14.77
2018-04-23T19:39:41.982Z,7.33
2018-04-23T19:42:13.016Z,7.50
2018-04-23T19:44:42.566Z,7.27
2018-04-23T19:47:15.753Z,6.50
2018-04-23T19:49:46.368Z,7.00
2018-04-23T19:52:17.245Z,6.63
2018-04-23T19:54:48.221Z,7.07
2018-04-23T19:57:22.709Z,12.60
2018-04-23T19:59:54.130Z,8.03
2018-04-23T20:02:24.748Z,8.63
2018-04-23T20:04:55.125Z,7.80
2018-04-23T20:07:27.198Z,10.20
2018-04-23T20:09:57.830Z,9.57
2018-04-23T20:12:28.631Z,12.57
2018-04-23T20:14:59.645Z,7.90
2018-04-23T20:17:30.255Z,7.72
2018-04-23T20:20:00.983Z,8.25
2018-04-23T20:22:31.001Z,8.33
2018-04-23T20:25:00.875Z,8.80
2018-04-23T20:27:31.108Z,9.38
2018-04-23T20:30:04.045Z,9.37
2018-04-23T20:32:35.440Z,8.73
2018-04-23T20:35:08.181Z,7.60
2018-04-23T20:37:38.365Z,7.70
2018-04-23T20:40:08.189Z,7.12
2018-04-23T20:42:37.977Z,7.27
2018-04-23T20:45:08.469Z,6.20
2018-04-23T20:47:38.760Z,7.82
2018-04-23T20:50:09.110Z,8.00
2018-04-23T20:52:39.594Z,9.45
2018-04-23T20:55:09.110Z,7.20
2018-04-23T20:57:39.076Z,6.95
2018-04-23T21:00:10.280Z,6.70
2018-04-23T21:02:39.973Z,9.88
2018-04-23T21:05:16.921Z,6.25
2018-04-23T21:07:55.815Z,7.00
2018-04-23T21:10:25.746Z,7.00
2018-04-23T21:12:59.026Z,8.18
2018-04-23T21:15:27.835Z,7.18
2018-04-23T21:18:07.917Z,6.95
2018-04-23T21:20:38.285Z,7.30
2018-04-23T21:23:08.092Z,5.50
2018-04-23T21:25:37.425Z,6.70
2018-04-23T21:28:13.311Z,5.60
2018-04-23T21:30:44.180Z,6.05
2018-04-23T21:33:14.336Z,6.32
2018-04-23T21:35:43.850Z,5.82
2018-04-23T21:38:13.777Z,11.63
2018-04-23T21:40:43.491Z,6.28
2018-04-23T21:43:13.357Z,5.35
2018-04-23T21:45:42.588Z,5.95
2018-04-23T21:48:12.227Z,11.70
2018-04-23T21:50:55.167Z,6.20
2018-04-23T21:53:33.812Z,5.55
2018-04-23T21:56:16.834Z,6.45
2018-04-23T21:58:46.673Z,6.15
2018-04-23T22:01:18.721Z,5.82
2018-04-23T22:03:48.358Z,6.30
2018-04-23T22:06:18.851Z,8.48
2018-04-23T22:08:48.888Z,7.30
2018-04-23T22:11:21.130Z,4.43
2018-04-23T22:13:50.045Z,5.03
2018-04-23T22:16:27.641Z,5.72
2018-04-23T22:18:57.593Z,9.35
2018-04-23T22:21:29.418Z,4.97
2018-04-23T22:23:58.326Z,4.80
2018-04-23T22:26:36.314Z,4.53
2018-04-23T22:29:14.428Z,5.35
2018-04-23T22:31:51.226Z,4.97
2018-04-23T22:34:27.959Z,5.53
2018-04-23T22:37:04.186Z,6.37
2018-04-23T22:39:43.392Z,4.50
2018-04-23T22:42:20.186Z,3.83
2018-04-23T22:44:59.126Z,7.55
2018-04-23T22:47:36.196Z,4.85
2018-04-23T22:50:13.573Z,5.70
2018-04-23T22:52:50.648Z,4.03
2018-04-23T22:55:28.568Z,3.55
2018-04-23T22:58:05.617Z,8.95
2018-04-23T23:00:45.237Z,3.72
2018-04-23T23:03:22.505Z,3.55
2018-04-23T23:05:53.945Z,3.22
2018-04-23T23:08:25.624Z,5.35
2018-04-23T23:10:54.599Z,3.75
2018-04-23T23:13:30.221Z,6.35
2018-04-23T23:16:05.889Z,4.05
2018-04-23T23:18:43.462Z,3.85
2018-04-23T23:21:19.979Z,7.43
2018-04-23T23:23:55.677Z,3.90
2018-04-23T23:26:35.822Z,5.07
2018-04-23T23:29:12.095Z,3.75
2018-04-23T23:31:42.810Z,4.10
2018-04-23T23:34:21.388Z,3.33
2018-04-23T23:36:51.313Z,5.15
2018-04-23T23:39:21.398Z,8.75
2018-04-23T23:41:51.357Z,4.18
2018-04-23T23:44:23.150Z,4.15
2018-04-23T23:46:52.035Z,3.80
2018-04-23T23:49:30.409Z,3.72
2018-04-23T23:52:05.943Z,5.32
2018-04-23T23:54:43.937Z,11.73
2018-04-23T23:57:21.555Z,4.28
